sensor_id;sensor_type;location;lat;lon;timestamp;pressure;altitude;pressure_sealevel;temperature;humidity
23953;BME280;12163;49.316;6.092;2023-07-02T00:02:05;98867.13;;;17.77;61.73
23953;BME280;12163;49.316;6.092;2023-07-02T00:04:31;98869.53;;;17.79;61.65
23953;BME280;12163;49.316;6.092;2023-07-02T00:06:58;98865.22;;;17.78;62.06
23953;BME280;12163;49.316;6.092;2023-07-02T00:09:25;98872.25;;;17.79;62.32
23953;BME280;12163;49.316;6.092;2023-07-02T00:11:52;98869.53;;;17.79;61.84
23953;BME280;12163;49.316;6.092;2023-07-02T00:14:18;98863.63;;;17.77;61.34
23953;BME280;12163;49.316;6.092;2023-07-02T00:16:45;98869.09;;;17.77;61.51
23953;BME280;12163;49.316;6.092;2023-07-02T00:19:15;98878.84;;;17.78;62.05
23953;BME280;12163;49.316;6.092;2023-07-02T00:21:42;98880.44;;;17.79;61.69
23953;BME280;12163;49.316;6.092;2023-07-02T00:24:09;98884.31;;;17.78;62.18
23953;BME280;12163;49.316;6.092;2023-07-02T00:26:37;98884.53;;;17.73;62.28
23953;BME280;12163;49.316;6.092;2023-07-02T00:29:08;98887.88;;;17.66;62.43
23953;BME280;12163;49.316;6.092;2023-07-02T00:31:35;98882.22;;;17.59;62.28
23953;BME280;12163;49.316;6.092;2023-07-02T00:34:03;98889.88;;;17.54;62.75
23953;BME280;12163;49.316;6.092;2023-07-02T00:36:31;98885.00;;;17.47;62.73
23953;BME280;12163;49.316;6.092;2023-07-02T00:38:58;98880.13;;;17.41;62.42
23953;BME280;12163;49.316;6.092;2023-07-02T00:41:26;98882.66;;;17.34;63.53
23953;BME280;12163;49.316;6.092;2023-07-02T00:43:53;98884.41;;;17.30;63.14
23953;BME280;12163;49.316;6.092;2023-07-02T00:46:23;98891.00;;;17.29;63.54
23953;BME280;12163;49.316;6.092;2023-07-02T00:48:54;98890.56;;;17.27;63.21
23953;BME280;12163;49.316;6.092;2023-07-02T00:51:26;98892.50;;;17.26;63.19
23953;BME280;12163;49.316;6.092;2023-07-02T00:53:55;98880.34;;;17.24;63.21
23953;BME280;12163;49.316;6.092;2023-07-02T00:56:24;98890.81;;;17.22;63.61
23953;BME280;12163;49.316;6.092;2023-07-02T00:58:53;98884.47;;;17.18;63.21
23953;BME280;12163;49.316;6.092;2023-07-02T01:01:22;98893.34;;;17.15;63.55
23953;BME280;12163;49.316;6.092;2023-07-02T01:04:02;98886.19;;;17.10;64.07
23953;BME280;12163;49.316;6.092;2023-07-02T01:06:32;98890.84;;;17.10;63.80
23953;BME280;12163;49.316;6.092;2023-07-02T01:09:05;98889.91;;;17.06;64.41
23953;BME280;12163;49.316;6.092;2023-07-02T01:11:43;98901.41;;;16.99;64.42
23953;BME280;12163;49.316;6.092;2023-07-02T01:14:35;98894.59;;;16.93;64.67
23953;BME280;12163;49.316;6.092;2023-07-02T01:17:03;98896.53;;;16.93;64.65
23953;BME280;12163;49.316;6.092;2023-07-02T01:19:49;98892.47;;;16.87;64.48
23953;BME280;12163;49.316;6.092;2023-07-02T01:22:25;98897.78;;;16.84;65.09
23953;BME280;12163;49.316;6.092;2023-07-02T01:24:52;98890.41;;;16.72;65.55
23953;BME280;12163;49.316;6.092;2023-07-02T01:27:19;98897.44;;;16.73;65.70
23953;BME280;12163;49.316;6.092;2023-07-02T01:29:50;98902.91;;;16.73;65.55
23953;BME280;12163;49.316;6.092;2023-07-02T01:32:17;98903.59;;;16.70;65.50
23953;BME280;12163;49.316;6.092;2023-07-02T01:34:44;98901.19;;;16.69;65.49
23953;BME280;12163;49.316;6.092;2023-07-02T01:37:15;98905.41;;;16.66;66.17
23953;BME280;12163;49.316;6.092;2023-07-02T01:39:43;98901.09;;;16.65;66.32
23953;BME280;12163;49.316;6.092;2023-07-02T01:42:14;98901.75;;;16.62;65.79
23953;BME280;12163;49.316;6.092;2023-07-02T01:44:47;98911.41;;;16.60;66.14
23953;BME280;12163;49.316;6.092;2023-07-02T01:47:14;98896.53;;;16.57;66.66
23953;BME280;12163;49.316;6.092;2023-07-02T01:49:42;98899.25;;;16.57;66.57
23953;BME280;12163;49.316;6.092;2023-07-02T01:52:09;98908.91;;;16.55;66.87
23953;BME280;12163;49.316;6.092;2023-07-02T01:54:36;98905.38;;;16.54;67.23
23953;BME280;12163;49.316;6.092;2023-07-02T01:57:03;98912.41;;;16.55;67.51
23953;BME280;12163;49.316;6.092;2023-07-02T01:59:31;98902.34;;;16.56;66.73
23953;BME280;12163;49.316;6.092;2023-07-02T02:01:57;98912.88;;;16.57;67.09
23953;BME280;12163;49.316;6.092;2023-07-02T02:04:24;98907.41;;;16.57;66.83
23953;BME280;12163;49.316;6.092;2023-07-02T02:06:51;98914.47;;;16.58;67.14
23953;BME280;12163;49.316;6.092;2023-07-02T02:09:18;98920.25;;;16.57;67.04
23953;BME280;12163;49.316;6.092;2023-07-02T02:11:50;98916.28;;;16.54;66.91
23953;BME280;12163;49.316;6.092;2023-07-02T02:14:18;98918.53;;;16.52;67.46
23953;BME280;12163;49.316;6.092;2023-07-02T02:16:45;98919.22;;;16.49;67.07
23953;BME280;12163;49.316;6.092;2023-07-02T02:19:12;98919.44;;;16.44;68.07
23953;BME280;12163;49.316;6.092;2023-07-02T02:21:43;98923.75;;;16.45;68.38
23953;BME280;12163;49.316;6.092;2023-07-02T02:24:10;98919.91;;;16.46;67.96
23953;BME280;12163;49.316;6.092;2023-07-02T02:26:37;98916.03;;;16.47;68.28
23953;BME280;12163;49.316;6.092;2023-07-02T02:29:04;98907.88;;;16.47;68.21
23953;BME280;12163;49.316;6.092;2023-07-02T02:31:30;98918.09;;;16.50;68.17
23953;BME280;12163;49.316;6.092;2023-07-02T02:33:57;98913.78;;;16.49;68.14
23953;BME280;12163;49.316;6.092;2023-07-02T02:36:24;98914.47;;;16.46;68.23
23953;BME280;12163;49.316;6.092;2023-07-02T02:38:50;98912.97;;;16.49;68.39
23953;BME280;12163;49.316;6.092;2023-07-02T02:41:17;98910.25;;;16.49;68.38
23953;BME280;12163;49.316;6.092;2023-07-02T02:43:44;98914.22;;;16.51;67.92
23953;BME280;12163;49.316;6.092;2023-07-02T02:46:11;98909.47;;;16.48;68.48
23953;BME280;12163;49.316;6.092;2023-07-02T02:48:38;98909.09;;;16.50;67.78
23953;BME280;12163;49.316;6.092;2023-07-02T02:51:05;98908.66;;;16.48;68.14
23953;BME280;12163;49.316;6.092;2023-07-02T02:53:32;98911.75;;;16.46;68.42
23953;BME280;12163;49.316;6.092;2023-07-02T02:55:58;98916.03;;;16.47;68.34
23953;BME280;12163;49.316;6.092;2023-07-02T02:58:25;98918.31;;;16.45;67.87
23953;BME280;12163;49.316;6.092;2023-07-02T03:00:54;98917.06;;;16.43;67.80
23953;BME280;12163;49.316;6.092;2023-07-02T03:03:22;98926.03;;;16.43;67.89
23953;BME280;12163;49.316;6.092;2023-07-02T03:05:48;98918.88;;;16.39;67.90
23953;BME280;12163;49.316;6.092;2023-07-02T03:08:15;98913.41;;;16.39;68.36
23953;BME280;12163;49.316;6.092;2023-07-02T03:10:42;98922.81;;;16.41;68.33
23953;BME280;12163;49.316;6.092;2023-07-02T03:13:08;98917.38;;;16.41;67.87
23953;BME280;12163;49.316;6.092;2023-07-02T03:15:35;98922.19;;;16.44;68.24
23953;BME280;12163;49.316;6.092;2023-07-02T03:18:01;98930.44;;;16.48;67.73
23953;BME280;12163;49.316;6.092;2023-07-02T03:20:28;98926.94;;;16.47;67.98
23953;BME280;12163;49.316;6.092;2023-07-02T03:22:55;98933.28;;;16.51;67.21
23953;BME280;12163;49.316;6.092;2023-07-02T03:25:21;98922.41;;;16.51;67.48
23953;BME280;12163;49.316;6.092;2023-07-02T03:27:48;98924.00;;;16.52;67.83
23953;BME280;12163;49.316;6.092;2023-07-02T03:30:15;98925.13;;;16.51;67.45
23953;BME280;12163;49.316;6.092;2023-07-02T03:32:41;98928.53;;;16.48;67.34
23953;BME280;12163;49.316;6.092;2023-07-02T03:35:08;98924.53;;;16.46;67.70
23953;BME280;12163;49.316;6.092;2023-07-02T03:37:34;98924.41;;;16.42;67.60
23953;BME280;12163;49.316;6.092;2023-07-02T03:40:01;98925.78;;;16.36;68.32
23953;BME280;12163;49.316;6.092;2023-07-02T03:42:28;98930.28;;;16.32;67.74
23953;BME280;12163;49.316;6.092;2023-07-02T03:44:55;98947.28;;;16.29;67.74
23953;BME280;12163;49.316;6.092;2023-07-02T03:47:22;98941.84;;;16.29;67.83
23953;BME280;12163;49.316;6.092;2023-07-02T03:49:48;98950.00;;;16.29;68.53
23953;BME280;12163;49.316;6.092;2023-07-02T03:52:15;98948.06;;;16.30;67.88
23953;BME280;12163;49.316;6.092;2023-07-02T03:54:42;98948.88;;;16.30;67.96
23953;BME280;12163;49.316;6.092;2023-07-02T03:57:08;98948.88;;;16.30;67.87
23953;BME280;12163;49.316;6.092;2023-07-02T03:59:35;98952.72;;;16.29;68.35
23953;BME280;12163;49.316;6.092;2023-07-02T04:02:01;98955.91;;;16.31;68.39
23953;BME280;12163;49.316;6.092;2023-07-02T04:04:28;98966.00;;;16.31;68.45
23953;BME280;12163;49.316;6.092;2023-07-02T04:06:55;98954.19;;;16.27;68.40
23953;BME280;12163;49.316;6.092;2023-07-02T04:09:22;98968.16;;;16.25;68.73
23953;BME280;12163;49.316;6.092;2023-07-02T04:11:48;98975.41;;;16.21;69.12
23953;BME280;12163;49.316;6.092;2023-07-02T04:14:15;98973.34;;;16.18;69.17
23953;BME280;12163;49.316;6.092;2023-07-02T04:16:45;98974.69;;;16.12;68.84
23953;BME280;12163;49.316;6.092;2023-07-02T04:19:12;98969.44;;;16.07;69.61
23953;BME280;12163;49.316;6.092;2023-07-02T04:21:38;98976.81;;;16.07;69.60
23953;BME280;12163;49.316;6.092;2023-07-02T04:24:05;98979.88;;;16.05;69.41
23953;BME280;12163;49.316;6.092;2023-07-02T04:26:32;98979.41;;;16.03;69.61
23953;BME280;12163;49.316;6.092;2023-07-02T04:29:19;98985.06;;;15.98;70.03
23953;BME280;12163;49.316;6.092;2023-07-02T04:31:46;98991.63;;;15.97;70.03
23953;BME280;12163;49.316;6.092;2023-07-02T04:34:13;98986.16;;;15.97;70.34
23953;BME280;12163;49.316;6.092;2023-07-02T04:36:39;98997.53;;;15.99;70.45
23953;BME280;12163;49.316;6.092;2023-07-02T04:39:08;99000.06;;;16.04;70.13
23953;BME280;12163;49.316;6.092;2023-07-02T04:41:34;98994.72;;;16.08;70.03
23953;BME280;12163;49.316;6.092;2023-07-02T04:44:01;98995.78;;;16.15;70.35
23953;BME280;12163;49.316;6.092;2023-07-02T04:46:28;99000.16;;;16.28;70.01
23953;BME280;12163;49.316;6.092;2023-07-02T04:48:54;99004.94;;;16.31;69.50
23953;BME280;12163;49.316;6.092;2023-07-02T04:51:21;99010.63;;;16.38;69.06
23953;BME280;12163;49.316;6.092;2023-07-02T04:53:48;99013.50;;;16.42;69.25
23953;BME280;12163;49.316;6.092;2023-07-02T04:56:14;99011.56;;;16.42;69.72
23953;BME280;12163;49.316;6.092;2023-07-02T04:58:41;99013.50;;;16.42;68.82
23953;BME280;12163;49.316;6.092;2023-07-02T05:01:08;99016.09;;;16.38;69.09
23953;BME280;12163;49.316;6.092;2023-07-02T05:03:34;99009.72;;;16.34;69.50
23953;BME280;12163;49.316;6.092;2023-07-02T05:06:01;99016.75;;;16.35;69.05
23953;BME280;12163;49.316;6.092;2023-07-02T05:08:28;99016.75;;;16.35;68.99
23953;BME280;12163;49.316;6.092;2023-07-02T05:10:54;99019.66;;;16.30;69.35
23953;BME280;12163;49.316;6.092;2023-07-02T05:13:21;99022.59;;;16.25;68.90
23953;BME280;12163;49.316;6.092;2023-07-02T05:15:47;99031.63;;;16.17;69.15
23953;BME280;12163;49.316;6.092;2023-07-02T05:18:15;99029.25;;;16.16;69.44
23953;BME280;12163;49.316;6.092;2023-07-02T05:20:41;99026.84;;;16.14;69.65
23953;BME280;12163;49.316;6.092;2023-07-02T05:23:08;99030.84;;;16.17;69.88
23953;BME280;12163;49.316;6.092;2023-07-02T05:25:34;99024.97;;;16.27;69.96
23953;BME280;12163;49.316;6.092;2023-07-02T05:28:01;99014.03;;;16.35;69.68
23953;BME280;12163;49.316;6.092;2023-07-02T05:30:28;99021.81;;;16.45;69.60
23953;BME280;12163;49.316;6.092;2023-07-02T05:32:54;99018.19;;;16.53;68.92
23953;BME280;12163;49.316;6.092;2023-07-02T05:35:21;99028.41;;;16.56;69.09
23953;BME280;12163;49.316;6.092;2023-07-02T05:37:48;99018.41;;;16.60;68.70
23953;BME280;12163;49.316;6.092;2023-07-02T05:40:14;99023.31;;;16.67;68.71
23953;BME280;12163;49.316;6.092;2023-07-02T05:42:43;99028.91;;;16.70;68.59
23953;BME280;12163;49.316;6.092;2023-07-02T05:45:10;99019.59;;;16.71;68.14
23953;BME280;12163;49.316;6.092;2023-07-02T05:47:36;99031.97;;;16.69;67.98
23953;BME280;12163;49.316;6.092;2023-07-02T05:50:05;99026.50;;;16.69;68.37
23953;BME280;12163;49.316;6.092;2023-07-02T05:52:31;99032.75;;;16.69;67.99
23953;BME280;12163;49.316;6.092;2023-07-02T05:54:58;99026.75;;;16.76;68.28
23953;BME280;12163;49.316;6.092;2023-07-02T05:57:25;99030.72;;;16.78;68.33
23953;BME280;12163;49.316;6.092;2023-07-02T05:59:51;99033.00;;;16.76;67.90
23953;BME280;12163;49.316;6.092;2023-07-02T06:02:18;99033.47;;;16.78;68.25
23953;BME280;12163;49.316;6.092;2023-07-02T06:04:44;99037.53;;;16.84;68.07
23953;BME280;12163;49.316;6.092;2023-07-02T06:07:11;99041.09;;;16.96;67.88
23953;BME280;12163;49.316;6.092;2023-07-02T06:09:38;99044.63;;;17.09;67.47
23953;BME280;12163;49.316;6.092;2023-07-02T06:12:05;99043.50;;;17.22;67.95
23953;BME280;12163;49.316;6.092;2023-07-02T06:14:31;99046.91;;;17.31;67.62
23953;BME280;12163;49.316;6.092;2023-07-02T06:16:58;99050.69;;;17.38;67.33
23953;BME280;12163;49.316;6.092;2023-07-02T06:19:25;99051.84;;;17.49;66.38
23953;BME280;12163;49.316;6.092;2023-07-02T06:21:52;99056.94;;;17.51;66.75
23953;BME280;12163;49.316;6.092;2023-07-02T06:24:19;99058.31;;;17.57;66.70
23953;BME280;12163;49.316;6.092;2023-07-02T06:26:45;99062.41;;;17.63;66.26
23953;BME280;12163;49.316;6.092;2023-07-02T06:29:12;99057.06;;;17.66;65.54
23953;BME280;12163;49.316;6.092;2023-07-02T06:31:38;99067.28;;;17.69;65.77
23953;BME280;12163;49.316;6.092;2023-07-02T06:34:05;99070.56;;;17.75;65.46
23953;BME280;12163;49.316;6.092;2023-07-02T06:36:32;99083.31;;;17.83;65.76
23953;BME280;12163;49.316;6.092;2023-07-02T06:38:59;99066.94;;;17.83;64.77
23953;BME280;12163;49.316;6.092;2023-07-02T06:41:26;99074.75;;;17.84;64.32
23953;BME280;12163;49.316;6.092;2023-07-02T06:43:52;99068.53;;;17.84;64.91
23953;BME280;12163;49.316;6.092;2023-07-02T06:46:19;99065.09;;;17.87;65.08
23953;BME280;12163;49.316;6.092;2023-07-02T06:48:46;99069.41;;;18.00;65.16
23953;BME280;12163;49.316;6.092;2023-07-02T06:51:12;99072.09;;;18.12;64.26
23953;BME280;12163;49.316;6.092;2023-07-02T06:53:42;99069.25;;;18.08;63.78
23953;BME280;12163;49.316;6.092;2023-07-02T06:56:08;99072.53;;;18.14;64.14
23953;BME280;12163;49.316;6.092;2023-07-02T06:58:41;99070.47;;;18.23;64.83
23953;BME280;12163;49.316;6.092;2023-07-02T07:01:08;99076.16;;;18.30;64.36
23953;BME280;12163;49.316;6.092;2023-07-02T07:03:35;99067.84;;;18.38;63.87
23953;BME280;12163;49.316;6.092;2023-07-02T07:06:02;99074.19;;;18.42;63.37
23953;BME280;12163;49.316;6.092;2023-07-02T07:08:29;99069.31;;;18.36;62.38
23953;BME280;12163;49.316;6.092;2023-07-02T07:10:56;99071.41;;;18.27;63.00
23953;BME280;12163;49.316;6.092;2023-07-02T07:13:22;99071.59;;;18.34;62.68
23953;BME280;12163;49.316;6.092;2023-07-02T07:15:49;99068.13;;;18.49;62.89
23953;BME280;12163;49.316;6.092;2023-07-02T07:18:16;99068.59;;;18.66;62.55
23953;BME280;12163;49.316;6.092;2023-07-02T07:20:45;99065.19;;;18.84;62.48
23953;BME280;12163;49.316;6.092;2023-07-02T07:23:12;99056.22;;;18.99;61.73
23953;BME280;12163;49.316;6.092;2023-07-02T07:25:38;99066.47;;;19.02;60.31
23953;BME280;12163;49.316;6.092;2023-07-02T07:28:05;99061.63;;;19.11;60.33
23953;BME280;12163;49.316;6.092;2023-07-02T07:30:32;99055.38;;;19.26;59.75
23953;BME280;12163;49.316;6.092;2023-07-02T07:32:59;99064.03;;;19.28;59.28
23953;BME280;12163;49.316;6.092;2023-07-02T07:35:25;99062.00;;;19.41;59.41
23953;BME280;12163;49.316;6.092;2023-07-02T07:37:52;99056.53;;;19.56;58.10
23953;BME280;12163;49.316;6.092;2023-07-02T07:40:19;99058.59;;;19.63;57.47
23953;BME280;12163;49.316;6.092;2023-07-02T07:42:45;99051.47;;;19.58;57.73
23953;BME280;12163;49.316;6.092;2023-07-02T07:45:12;99054.56;;;19.57;57.90
23953;BME280;12163;49.316;6.092;2023-07-02T07:47:39;99050.41;;;19.63;57.89
23953;BME280;12163;49.316;6.092;2023-07-02T07:50:07;99063.31;;;19.62;57.09
23953;BME280;12163;49.316;6.092;2023-07-02T07:52:41;99062.59;;;19.65;57.27
23953;BME280;12163;49.316;6.092;2023-07-02T07:55:09;99050.84;;;19.65;56.99
23953;BME280;12163;49.316;6.092;2023-07-02T07:57:36;99050.78;;;19.61;57.21
23953;BME280;12163;49.316;6.092;2023-07-02T08:00:04;99053.13;;;19.63;56.89
23953;BME280;12163;49.316;6.092;2023-07-02T08:02:34;99050.78;;;19.61;56.84
23953;BME280;12163;49.316;6.092;2023-07-02T08:05:02;99055.38;;;19.57;57.17
23953;BME280;12163;49.316;6.092;2023-07-02T08:07:31;99059.88;;;19.50;57.27
23953;BME280;12163;49.316;6.092;2023-07-02T08:09:58;99058.44;;;19.56;57.05
23953;BME280;12163;49.316;6.092;2023-07-02T08:12:25;99053.13;;;19.78;55.81
23953;BME280;12163;49.316;6.092;2023-07-02T08:14:56;99061.19;;;20.06;54.68
23953;BME280;12163;49.316;6.092;2023-07-02T08:17:23;99052.84;;;20.37;54.28
23953;BME280;12163;49.316;6.092;2023-07-02T08:19:50;99064.47;;;20.49;52.45
23953;BME280;12163;49.316;6.092;2023-07-02T08:22:16;99060.56;;;20.50;52.57
23953;BME280;12163;49.316;6.092;2023-07-02T08:24:43;99063.72;;;20.52;52.39
23953;BME280;12163;49.316;6.092;2023-07-02T08:27:10;99063.00;;;20.55;51.47
23953;BME280;12163;49.316;6.092;2023-07-02T08:29:40;99070.16;;;20.59;52.28
23953;BME280;12163;49.316;6.092;2023-07-02T08:32:07;99067.31;;;20.75;50.20
23953;BME280;12163;49.316;6.092;2023-07-02T08:34:34;99071.66;;;20.95;50.58
23953;BME280;12163;49.316;6.092;2023-07-02T08:37:00;99071.59;;;21.14;50.16
23953;BME280;12163;49.316;6.092;2023-07-02T08:39:27;99072.03;;;21.16;48.94
23953;BME280;12163;49.316;6.092;2023-07-02T08:41:53;99075.78;;;21.08;49.82
23953;BME280;12163;49.316;6.092;2023-07-02T08:44:21;99061.09;;;21.19;49.10
23953;BME280;12163;49.316;6.092;2023-07-02T08:46:50;99062.16;;;21.34;48.40
23953;BME280;12163;49.316;6.092;2023-07-02T08:49:19;99078.06;;;21.47;47.16
23953;BME280;12163;49.316;6.092;2023-07-02T08:51:46;99076.09;;;21.48;46.95
23953;BME280;12163;49.316;6.092;2023-07-02T08:54:14;99073.84;;;21.53;46.55
23953;BME280;12163;49.316;6.092;2023-07-02T08:56:41;99078.66;;;21.37;46.76
23953;BME280;12163;49.316;6.092;2023-07-02T08:59:09;99082.28;;;21.19;47.13
23953;BME280;12163;49.316;6.092;2023-07-02T09:01:52;99078.84;;;21.03;47.10
23953;BME280;12163;49.316;6.092;2023-07-02T09:04:25;99083.78;;;20.94;47.53
23953;BME280;12163;49.316;6.092;2023-07-02T09:07:08;99087.19;;;20.87;48.80
23953;BME280;12163;49.316;6.092;2023-07-02T09:09:49;99096.47;;;20.83;49.17
23953;BME280;12163;49.316;6.092;2023-07-02T09:12:29;99099.41;;;20.74;48.89
23953;BME280;12163;49.316;6.092;2023-07-02T09:15:00;99095.59;;;20.79;49.09
23953;BME280;12163;49.316;6.092;2023-07-02T09:17:33;99084.28;;;20.99;48.29
23953;BME280;12163;49.316;6.092;2023-07-02T09:20:02;99092.56;;;21.03;48.15
23953;BME280;12163;49.316;6.092;2023-07-02T09:22:31;99096.84;;;21.00;48.75
23953;BME280;12163;49.316;6.092;2023-07-02T09:24:59;99099.19;;;21.02;47.86
23953;BME280;12163;49.316;6.092;2023-07-02T09:27:37;99107.13;;;21.07;48.20
23953;BME280;12163;49.316;6.092;2023-07-02T09:30:09;99097.72;;;21.08;47.63
23953;BME280;12163;49.316;6.092;2023-07-02T09:32:36;99100.78;;;21.03;47.50
23953;BME280;12163;49.316;6.092;2023-07-02T09:35:03;99103.19;;;21.04;48.22
23953;BME280;12163;49.316;6.092;2023-07-02T09:37:31;99106.47;;;21.13;47.76
23953;BME280;12163;49.316;6.092;2023-07-02T09:39:58;99099.00;;;21.33;47.17
23953;BME280;12163;49.316;6.092;2023-07-02T09:42:25;99086.19;;;21.63;45.58
23953;BME280;12163;49.316;6.092;2023-07-02T09:44:54;99096.56;;;21.99;45.18
23953;BME280;12163;49.316;6.092;2023-07-02T09:47:22;99094.22;;;22.01;44.57
23953;BME280;12163;49.316;6.092;2023-07-02T09:49:54;99104.47;;;21.78;45.55
23953;BME280;12163;49.316;6.092;2023-07-02T09:52:21;99101.78;;;21.59;45.82
23953;BME280;12163;49.316;6.092;2023-07-02T09:54:49;99094.47;;;21.44;46.41
23953;BME280;12163;49.316;6.092;2023-07-02T09:57:16;99111.47;;;21.30;47.13
23953;BME280;12163;49.316;6.092;2023-07-02T09:59:43;99096.75;;;21.19;47.84
23953;BME280;12163;49.316;6.092;2023-07-02T10:02:10;99101.16;;;21.24;47.91
23953;BME280;12163;49.316;6.092;2023-07-02T10:04:44;99100.38;;;21.46;48.41
23953;BME280;12163;49.316;6.092;2023-07-02T10:07:12;99103.50;;;21.67;47.23
23953;BME280;12163;49.316;6.092;2023-07-02T10:09:43;99095.56;;;21.62;47.08
23953;BME280;12163;49.316;6.092;2023-07-02T10:12:16;99096.28;;;21.59;46.27
23953;BME280;12163;49.316;6.092;2023-07-02T10:14:44;99094.06;;;21.64;46.29
23953;BME280;12163;49.316;6.092;2023-07-02T10:17:31;99095.25;;;21.67;44.68
23953;BME280;12163;49.316;6.092;2023-07-02T10:20:04;99093.34;;;21.71;45.65
23953;BME280;12163;49.316;6.092;2023-07-02T10:22:49;99092.94;;;21.95;44.95
23953;BME280;12163;49.316;6.092;2023-07-02T10:25:30;99082.78;;;22.25;43.77
23953;BME280;12163;49.316;6.092;2023-07-02T10:27:58;99088.16;;;22.43;43.43
23953;BME280;12163;49.316;6.092;2023-07-02T10:33:11;99090.78;;;22.36;43.71
23953;BME280;12163;49.316;6.092;2023-07-02T10:35:39;99097.03;;;22.33;44.31
23953;BME280;12163;49.316;6.092;2023-07-02T10:38:29;99100.88;;;22.00;45.47
23953;BME280;12163;49.316;6.092;2023-07-02T10:41:00;99098.06;;;21.70;46.12
23953;BME280;12163;49.316;6.092;2023-07-02T10:43:28;99103.97;;;21.50;46.84
23953;BME280;12163;49.316;6.092;2023-07-02T10:45:58;99084.94;;;21.38;47.85
23953;BME280;12163;49.316;6.092;2023-07-02T10:48:27;99093.28;;;21.45;47.50
23953;BME280;12163;49.316;6.092;2023-07-02T10:50:54;99096.34;;;21.62;46.71
23953;BME280;12163;49.316;6.092;2023-07-02T10:53:20;99105.09;;;21.68;46.05
23953;BME280;12163;49.316;6.092;2023-07-02T10:55:55;99099.97;;;21.66;44.19
23953;BME280;12163;49.316;6.092;2023-07-02T10:58:24;99095.59;;;21.88;44.40
23953;BME280;12163;49.316;6.092;2023-07-02T11:00:51;99092.59;;;22.26;44.15
23953;BME280;12163;49.316;6.092;2023-07-02T11:03:23;99076.97;;;22.62;44.04
23953;BME280;12163;49.316;6.092;2023-07-02T11:05:50;99077.78;;;22.99;43.96
23953;BME280;12163;49.316;6.092;2023-07-02T11:08:18;99069.56;;;23.39;43.05
23953;BME280;12163;49.316;6.092;2023-07-02T11:10:47;99078.34;;;23.55;41.62
23953;BME280;12163;49.316;6.092;2023-07-02T11:13:16;99078.94;;;23.31;40.16
23953;BME280;12163;49.316;6.092;2023-07-02T11:15:43;99081.13;;;23.15;40.97
23953;BME280;12163;49.316;6.092;2023-07-02T11:18:14;99079.44;;;23.07;42.07
23953;BME280;12163;49.316;6.092;2023-07-02T11:20:43;99077.72;;;22.92;41.97
23953;BME280;12163;49.316;6.092;2023-07-02T11:23:20;99092.25;;;22.89;41.89
23953;BME280;12163;49.316;6.092;2023-07-02T11:25:59;99087.41;;;22.79;42.23
23953;BME280;12163;49.316;6.092;2023-07-02T11:28:28;99092.56;;;22.84;42.70
23953;BME280;12163;49.316;6.092;2023-07-02T11:30:55;99089.38;;;22.79;41.72
23953;BME280;12163;49.316;6.092;2023-07-02T11:33:39;99082.13;;;23.00;41.87
23953;BME280;12163;49.316;6.092;2023-07-02T11:36:07;99076.41;;;23.16;41.55
23953;BME280;12163;49.316;6.092;2023-07-02T11:38:46;99070.44;;;23.54;40.47
23953;BME280;12163;49.316;6.092;2023-07-02T11:41:12;99067.50;;;23.80;40.41
23953;BME280;12163;49.316;6.092;2023-07-02T11:43:39;99066.66;;;23.72;39.90
23953;BME280;12163;49.316;6.092;2023-07-02T11:46:06;99069.81;;;23.74;40.44
23953;BME280;12163;49.316;6.092;2023-07-02T11:48:32;99079.22;;;23.66;40.18
23953;BME280;12163;49.316;6.092;2023-07-02T11:50:59;99072.75;;;23.48;40.59
23953;BME280;12163;49.316;6.092;2023-07-02T11:53:26;99069.56;;;23.39;40.91
23953;BME280;12163;49.316;6.092;2023-07-02T11:55:52;99073.34;;;23.24;41.01
23953;BME280;12163;49.316;6.092;2023-07-02T11:58:19;99063.91;;;23.22;41.00
23953;BME280;12163;49.316;6.092;2023-07-02T12:00:45;99064.03;;;23.39;40.76
23953;BME280;12163;49.316;6.092;2023-07-02T12:03:12;99062.28;;;23.64;39.84
23953;BME280;12163;49.316;6.092;2023-07-02T12:05:39;99057.97;;;23.70;40.10
23953;BME280;12163;49.316;6.092;2023-07-02T12:08:05;99060.69;;;23.63;39.29
23953;BME280;12163;49.316;6.092;2023-07-02T12:10:32;99072.84;;;23.55;38.74
23953;BME280;12163;49.316;6.092;2023-07-02T12:12:59;99068.91;;;23.56;39.27
23953;BME280;12163;49.316;6.092;2023-07-02T12:15:25;99073.66;;;23.59;40.14
23953;BME280;12163;49.316;6.092;2023-07-02T12:17:52;99087.78;;;23.58;39.99
23953;BME280;12163;49.316;6.092;2023-07-02T12:20:19;99087.63;;;23.37;39.62
23953;BME280;12163;49.316;6.092;2023-07-02T12:22:45;99096.06;;;23.14;39.86
23953;BME280;12163;49.316;6.092;2023-07-02T12:25:12;99091.31;;;23.11;41.01
23953;BME280;12163;49.316;6.092;2023-07-02T12:27:39;99088.13;;;23.09;40.70
23953;BME280;12163;49.316;6.092;2023-07-02T12:30:06;99090.44;;;23.04;41.83
23953;BME280;12163;49.316;6.092;2023-07-02T12:32:33;99080.31;;;23.11;41.17
23953;BME280;12163;49.316;6.092;2023-07-02T12:35:00;99093.81;;;23.27;41.19
23953;BME280;12163;49.316;6.092;2023-07-02T12:37:28;99088.34;;;23.30;40.86
23953;BME280;12163;49.316;6.092;2023-07-02T12:39:54;99084.09;;;23.36;40.16
23953;BME280;12163;49.316;6.092;2023-07-02T12:42:21;99074.66;;;23.41;39.31
23953;BME280;12163;49.316;6.092;2023-07-02T12:44:47;99093.22;;;23.47;39.86
23953;BME280;12163;49.316;6.092;2023-07-02T12:47:14;99072.75;;;23.48;39.18
23953;BME280;12163;49.316;6.092;2023-07-02T12:49:41;99077.94;;;23.53;38.74
23953;BME280;12163;49.316;6.092;2023-07-02T12:52:07;99069.00;;;23.67;38.62
23953;BME280;12163;49.316;6.092;2023-07-02T12:54:34;99066.69;;;23.76;39.09
23953;BME280;12163;49.316;6.092;2023-07-02T12:57:00;99060.59;;;24.03;38.47
23953;BME280;12163;49.316;6.092;2023-07-02T12:59:27;99057.56;;;24.29;37.54
23953;BME280;12163;49.316;6.092;2023-07-02T13:01:54;99067.06;;;24.38;37.56
23953;BME280;12163;49.316;6.092;2023-07-02T13:04:20;99062.47;;;24.60;36.10
23953;BME280;12163;49.316;6.092;2023-07-02T13:06:47;99071.56;;;24.67;36.53
23953;BME280;12163;49.316;6.092;2023-07-02T13:09:14;99067.94;;;24.53;35.24